createdAt,value
2017-11-18T00:00:59.535Z,4.60
2017-11-18T00:03:27.486Z,6.10
2017-11-18T00:05:55.356Z,5.37
2017-11-18T00:08:23.278Z,4.37
2017-11-18T00:10:51.247Z,5.00
2017-11-18T00:13:19.205Z,5.75
2017-11-18T00:15:47.138Z,5.03
2017-11-18T00:18:15.098Z,5.32
2017-11-18T00:20:43.056Z,5.28
2017-11-18T00:23:12.763Z,5.37
2017-11-18T00:25:41.098Z,5.90
2017-11-18T00:28:09.062Z,5.95
2017-11-18T00:30:36.981Z,5.32
2017-11-18T00:33:05.726Z,5.40
2017-11-18T00:35:33.631Z,6.40
2017-11-18T00:38:02.375Z,10.43
2017-11-18T00:40:30.301Z,5.85
2017-11-18T00:42:58.261Z,5.25
2017-11-18T00:45:26.192Z,6.90
2017-11-18T00:47:54.165Z,6.25
2017-11-18T00:50:22.097Z,5.50
2017-11-18T00:52:50.213Z,5.80
2017-11-18T00:55:18.150Z,6.07
2017-11-18T00:57:46.134Z,5.57
2017-11-18T01:00:14.067Z,5.90
2017-11-18T01:02:42.117Z,5.70
2017-11-18T01:05:10.027Z,5.85
2017-11-18T01:07:38.177Z,5.82
2017-11-18T01:10:06.102Z,5.78
2017-11-18T01:12:34.084Z,5.60
2017-11-18T01:15:02.003Z,5.32
2017-11-18T01:17:29.932Z,4.50
2017-11-18T01:19:57.896Z,6.57
2017-11-18T01:22:27.055Z,5.72
2017-11-18T01:24:55.013Z,6.53
2017-11-18T01:27:22.930Z,6.70
2017-11-18T01:29:50.882Z,5.30
2017-11-18T01:32:18.802Z,5.12
2017-11-18T01:34:47.574Z,5.80
2017-11-18T01:37:15.510Z,6.00
2017-11-18T01:39:43.567Z,5.25
2017-11-18T01:42:11.506Z,5.60
2017-11-18T01:44:39.528Z,5.60
2017-11-18T01:47:07.475Z,4.62
2017-11-18T01:49:35.496Z,4.80
2017-11-18T01:52:05.521Z,6.68
2017-11-18T01:54:34.323Z,7.97
2017-11-18T01:57:02.259Z,6.97
2017-11-18T01:59:30.224Z,5.85
2017-11-18T02:01:58.180Z,8.50
2017-11-18T02:04:26.172Z,5.78
2017-11-18T02:06:54.110Z,6.75
2017-11-18T02:09:22.096Z,5.22
2017-11-18T02:11:50.023Z,5.87
2017-11-18T02:14:18.030Z,5.82
2017-11-18T02:16:45.965Z,5.05
2017-11-18T02:19:13.911Z,5.32
2017-11-18T02:21:43.987Z,6.00
2017-11-18T02:24:12.054Z,6.12
2017-11-18T02:26:40.093Z,6.10
2017-11-18T02:29:08.129Z,5.75
2017-11-18T02:31:36.164Z,5.12
2017-11-18T02:34:04.154Z,5.10
2017-11-18T02:36:32.171Z,4.90
2017-11-18T02:39:00.165Z,6.57
2017-11-18T02:41:28.168Z,5.60
2017-11-18T02:43:56.217Z,5.18
2017-11-18T02:46:24.222Z,5.68
2017-11-18T02:48:52.193Z,5.20
2017-11-18T02:51:20.172Z,5.35
2017-11-18T02:53:48.170Z,4.87
2017-11-18T02:56:16.196Z,5.00
2017-11-18T02:58:44.156Z,5.03
2017-11-18T03:01:12.097Z,5.25
2017-11-18T03:03:39.991Z,5.20
2017-11-18T03:06:07.995Z,5.90
2017-11-18T03:08:35.909Z,4.90
2017-11-18T03:11:03.877Z,5.03
2017-11-18T03:13:35.518Z,5.05
2017-11-18T03:16:04.255Z,5.72
2017-11-18T03:18:32.163Z,6.07
2017-11-18T03:21:00.132Z,4.45
2017-11-18T03:23:28.043Z,4.78
2017-11-18T03:25:55.975Z,4.55
2017-11-18T03:28:23.944Z,4.22
2017-11-18T03:30:52.636Z,5.03
2017-11-18T03:33:21.352Z,4.95
2017-11-18T03:35:49.255Z,4.90
2017-11-18T03:38:17.204Z,4.78
2017-11-18T03:40:45.115Z,4.25
2017-11-18T03:43:17.066Z,5.65
2017-11-18T03:45:45.023Z,4.57
2017-11-18T03:48:13.042Z,5.70
2017-11-18T03:50:40.975Z,5.93
2017-11-18T03:53:08.938Z,4.20
2017-11-18T03:55:36.862Z,6.10
2017-11-18T03:58:04.859Z,5.93
2017-11-18T04:00:33.527Z,5.30
2017-11-18T04:03:01.506Z,6.07
2017-11-18T04:05:29.439Z,5.70
2017-11-18T04:07:57.421Z,5.62
2017-11-18T04:10:25.338Z,5.97
2017-11-18T04:13:01.565Z,5.57
2017-11-18T04:15:29.526Z,6.68
2017-11-18T04:17:57.477Z,5.90
2017-11-18T04:20:25.414Z,6.12
2017-11-18T04:22:53.360Z,7.15
2017-11-18T04:25:21.249Z,5.68
2017-11-18T04:27:49.279Z,6.47
2017-11-18T04:30:17.284Z,5.62
2017-11-18T04:32:45.209Z,5.93
2017-11-18T04:35:13.199Z,6.03
2017-11-18T04:37:41.112Z,6.22
2017-11-18T04:40:09.110Z,5.68
2017-11-18T04:42:39.038Z,6.15
2017-11-18T04:45:07.032Z,5.80
2017-11-18T04:47:34.952Z,5.95
2017-11-18T04:50:03.013Z,5.70
2017-11-18T04:52:30.945Z,5.93
2017-11-18T04:54:58.945Z,5.72
2017-11-18T04:57:26.843Z,5.57
2017-11-18T04:59:55.578Z,5.95
2017-11-18T05:02:23.516Z,7.05
2017-11-18T05:04:51.462Z,5.35
2017-11-18T05:07:19.418Z,6.18
2017-11-18T05:09:47.415Z,5.45
2017-11-18T05:12:16.526Z,5.00
2017-11-18T05:14:44.475Z,5.50
2017-11-18T05:17:12.399Z,5.93
2017-11-18T05:19:40.398Z,5.53
2017-11-18T05:22:08.329Z,4.70
2017-11-18T05:24:36.310Z,5.10
2017-11-18T05:27:04.241Z,5.62
2017-11-18T05:29:32.204Z,5.32
2017-11-18T05:32:00.182Z,4.12
2017-11-18T05:34:28.154Z,4.30
2017-11-18T05:36:56.129Z,6.22
2017-11-18T05:39:24.065Z,4.72
2017-11-18T05:41:52.213Z,4.72
2017-11-18T05:44:20.194Z,5.10
2017-11-18T05:46:48.152Z,5.25
2017-11-18T05:49:16.045Z,5.15
2017-11-18T05:51:43.989Z,4.40
2017-11-18T05:54:11.892Z,5.12
2017-11-18T05:56:39.873Z,5.22
2017-11-18T05:59:08.699Z,5.40
2017-11-18T06:01:36.711Z,4.78
2017-11-18T06:04:04.844Z,5.00
2017-11-18T06:06:32.820Z,4.22
2017-11-18T06:09:00.784Z,5.20
2017-11-18T06:11:29.231Z,4.97
2017-11-18T06:13:57.154Z,5.25
2017-11-18T06:16:25.140Z,5.62
2017-11-18T06:18:53.121Z,5.32
2017-11-18T06:21:21.101Z,5.47
2017-11-18T06:23:49.167Z,5.55
2017-11-18T06:26:17.114Z,5.70
2017-11-18T06:28:45.012Z,5.20
2017-11-18T06:31:13.020Z,4.53
2017-11-18T06:33:41.059Z,5.65
2017-11-18T06:36:09.816Z,5.75
2017-11-18T06:38:37.736Z,6.85
2017-11-18T06:41:05.745Z,6.07
2017-11-18T06:43:33.726Z,5.68
2017-11-18T06:46:01.664Z,5.82
2017-11-18T06:48:29.620Z,5.07
2017-11-18T06:50:57.521Z,5.65
2017-11-18T06:53:25.519Z,5.25
2017-11-18T06:55:53.440Z,5.37
2017-11-18T06:58:21.444Z,5.25
2017-11-18T07:00:49.376Z,4.78
2017-11-18T07:03:18.376Z,5.15
2017-11-18T07:05:46.298Z,7.87
2017-11-18T07:08:14.274Z,6.03
2017-11-18T07:10:47.737Z,7.00
2017-11-18T07:13:20.239Z,6.47
2017-11-18T07:15:53.290Z,7.15
2017-11-18T07:18:27.789Z,6.60
2017-11-18T07:20:59.188Z,6.47
2017-11-18T07:23:32.777Z,6.62
2017-11-18T07:26:01.878Z,5.57
2017-11-18T07:28:36.167Z,6.68
2017-11-18T07:31:05.648Z,5.50
2017-11-18T07:33:35.286Z,5.45
2017-11-18T07:36:05.950Z,5.47
2017-11-18T07:38:41.145Z,6.18
2017-11-18T07:41:15.609Z,5.82
2017-11-18T07:43:44.311Z,6.22
2017-11-18T07:46:12.257Z,5.78
2017-11-18T07:48:40.271Z,7.00
2017-11-18T07:51:08.203Z,8.68
2017-11-18T07:53:36.398Z,7.03
2017-11-18T07:56:04.316Z,7.28
2017-11-18T07:58:32.311Z,8.15
2017-11-18T08:01:00.239Z,6.65
2017-11-18T08:03:28.231Z,9.95
2017-11-18T08:05:56.172Z,14.27
2017-11-18T08:08:24.180Z,13.62
2017-11-18T08:10:52.106Z,10.60
2017-11-18T08:13:20.096Z,8.38
2017-11-18T08:15:48.043Z,8.63
2017-11-18T08:18:15.992Z,7.45
2017-11-18T08:20:44.033Z,7.78
2017-11-18T08:23:14.168Z,8.23
2017-11-18T08:25:42.570Z,7.55
2017-11-18T08:28:10.491Z,9.63
2017-11-18T08:30:38.474Z,7.30
2017-11-18T08:33:06.372Z,7.15
2017-11-18T08:35:34.328Z,7.82
2017-11-18T08:38:02.278Z,9.35
2017-11-18T08:40:30.270Z,9.07
2017-11-18T08:42:58.192Z,8.30
2017-11-18T08:45:26.213Z,8.90
2017-11-18T08:47:54.160Z,7.80
2017-11-18T08:50:22.144Z,7.50
2017-11-18T08:52:53.795Z,7.20
2017-11-18T08:55:21.863Z,5.77
2017-11-18T08:57:49.804Z,5.85
2017-11-18T09:00:18.568Z,6.43
2017-11-18T09:02:46.510Z,6.43
2017-11-18T09:05:14.905Z,6.20
2017-11-18T09:07:42.817Z,7.15
2017-11-18T09:10:10.943Z,5.68
2017-11-18T09:12:38.872Z,5.90
2017-11-18T09:15:06.851Z,6.37
2017-11-18T09:17:34.825Z,5.65
2017-11-18T09:20:02.731Z,6.50
2017-11-18T09:22:34.694Z,6.35
2017-11-18T09:25:02.621Z,6.35
2017-11-18T09:27:30.594Z,5.12
2017-11-18T09:29:58.555Z,6.28
2017-11-18T09:32:26.507Z,6.18
2017-11-18T09:34:54.482Z,6.40
2017-11-18T09:37:22.457Z,5.70
2017-11-18T09:39:50.402Z,6.15
2017-11-18T09:42:18.345Z,5.15
2017-11-18T09:44:46.281Z,6.12
2017-11-18T09:47:14.227Z,5.70
2017-11-18T09:49:42.129Z,6.37
2017-11-18T09:52:13.691Z,4.80
2017-11-18T09:54:41.603Z,5.28
2017-11-18T09:57:09.585Z,4.60
2017-11-18T09:59:37.500Z,4.90
2017-11-18T10:02:05.463Z,4.43
2017-11-18T10:04:33.396Z,5.65
2017-11-18T10:07:02.222Z,4.85
2017-11-18T10:09:30.207Z,4.75
2017-11-18T10:11:59.066Z,4.40
2017-11-18T10:14:26.977Z,5.47
2017-11-18T10:16:55.081Z,4.40
2017-11-18T10:19:23.025Z,4.75
2017-11-18T10:21:51.306Z,3.95
2017-11-18T10:24:22.064Z,4.22
2017-11-18T10:26:50.050Z,3.80
2017-11-18T10:29:17.994Z,4.20
2017-11-18T10:31:45.919Z,4.28
2017-11-18T10:34:13.960Z,4.20
2017-11-18T10:36:41.889Z,4.65
2017-11-18T10:39:09.882Z,3.70
2017-11-18T10:41:37.786Z,3.87
2017-11-18T10:44:05.814Z,5.07
2017-11-18T10:46:33.729Z,4.68
2017-11-18T10:49:01.734Z,4.53
2017-11-18T10:51:29.673Z,3.90
2017-11-18T10:53:57.623Z,4.18
2017-11-18T10:56:25.647Z,4.37
2017-11-18T10:58:53.618Z,3.97
2017-11-18T11:01:21.538Z,5.25
2017-11-18T11:03:49.677Z,4.07
2017-11-18T11:06:17.667Z,4.53
2017-11-18T11:08:46.425Z,4.12
2017-11-18T11:11:14.409Z,4.50
2017-11-18T11:13:42.421Z,4.32
2017-11-18T11:16:10.493Z,4.32
2017-11-18T11:18:38.460Z,4.57
2017-11-18T11:21:06.406Z,4.43
2017-11-18T11:23:35.196Z,4.97
2017-11-18T11:26:03.156Z,4.15
2017-11-18T11:28:31.171Z,5.12
2017-11-18T11:30:59.091Z,4.70
2017-11-18T11:33:35.960Z,5.72
2017-11-18T11:36:03.934Z,4.62
2017-11-18T11:38:31.862Z,4.50
2017-11-18T11:40:59.815Z,5.37
2017-11-18T11:43:27.777Z,5.87
2017-11-18T11:45:55.682Z,4.57
2017-11-18T11:48:23.637Z,4.75
2017-11-18T11:50:51.582Z,4.95
2017-11-18T11:53:20.251Z,5.68
2017-11-18T11:55:49.122Z,5.40
2017-11-18T11:58:17.114Z,4.90
2017-11-18T12:00:45.829Z,4.97
2017-11-18T12:03:17.875Z,4.25
2017-11-18T12:05:46.614Z,4.00
2017-11-18T12:08:14.569Z,5.43
2017-11-18T12:10:45.798Z,5.00
2017-11-18T12:13:13.825Z,3.95
2017-11-18T12:15:43.071Z,5.40
2017-11-18T12:18:13.068Z,4.30
2017-11-18T12:20:41.035Z,5.05
2017-11-18T12:23:08.987Z,3.80
2017-11-18T12:25:36.996Z,4.60
2017-11-18T12:28:04.951Z,5.25
2017-11-18T12:30:32.956Z,6.12
2017-11-18T12:33:00.935Z,4.87
2017-11-18T12:35:28.997Z,5.43
2017-11-18T12:37:56.937Z,4.53
2017-11-18T12:40:25.052Z,4.90
2017-11-18T12:42:56.994Z,4.43
2017-11-18T12:45:24.967Z,5.32
2017-11-18T12:47:52.893Z,4.72
2017-11-18T12:50:20.908Z,5.05
2017-11-18T12:52:50.157Z,4.75
2017-11-18T12:55:18.243Z,4.55
2017-11-18T12:57:46.174Z,4.50
2017-11-18T13:00:14.153Z,4.50
2017-11-18T13:02:42.094Z,4.85
2017-11-18T13:05:10.011Z,4.18
2017-11-18T13:07:37.987Z,4.68
2017-11-18T13:10:05.911Z,5.03
2017-11-18T13:12:36.933Z,3.80
2017-11-18T13:15:04.830Z,5.03
2017-11-18T13:17:32.879Z,4.60
2017-11-18T13:20:00.820Z,4.55
2017-11-18T13:22:29.650Z,4.55
2017-11-18T13:24:57.561Z,4.45
2017-11-18T13:27:25.687Z,3.83
2017-11-18T13:29:53.617Z,3.70
2017-11-18T13:32:23.722Z,3.62
2017-11-18T13:34:51.701Z,3.33
2017-11-18T13:37:19.666Z,3.97
2017-11-18T13:39:47.584Z,6.93
2017-11-18T13:42:15.737Z,5.70
2017-11-18T13:44:43.653Z,4.80
2017-11-18T13:47:11.629Z,3.75
2017-11-18T13:49:39.533Z,2.60
2017-11-18T13:52:08.272Z,4.95
2017-11-18T13:54:36.303Z,3.17
2017-11-18T13:57:04.346Z,2.95
2017-11-18T13:59:32.262Z,7.10
2017-11-18T14:02:00.285Z,8.43
2017-11-18T14:04:28.215Z,3.70
2017-11-18T14:06:56.130Z,3.53
2017-11-18T14:09:24.098Z,6.25
2017-11-18T14:11:52.206Z,6.82
2017-11-18T14:14:20.250Z,3.20
2017-11-18T14:16:48.242Z,2.70
2017-11-18T14:19:17.394Z,2.12
2017-11-18T14:21:45.371Z,2.90
2017-11-18T14:24:13.358Z,3.05
2017-11-18T14:26:41.245Z,3.42
2017-11-18T14:29:09.970Z,2.22
2017-11-18T14:31:37.850Z,3.22
2017-11-18T14:34:05.829Z,2.15
2017-11-18T14:36:33.755Z,2.95
2017-11-18T14:39:02.145Z,3.12
2017-11-18T14:41:30.085Z,3.15
2017-11-18T14:43:58.095Z,3.00
2017-11-18T15:32:35.408Z,3.20
2017-11-18T15:35:08.895Z,2.97
2017-11-18T15:37:38.339Z,2.08
2017-11-18T15:40:06.443Z,2.25
2017-11-18T15:42:34.460Z,2.08
2017-11-18T15:45:02.545Z,2.42
2017-11-18T15:47:36.116Z,2.90
2017-11-18T15:53:20.066Z,2.00
2017-11-18T15:55:54.411Z,2.00
2017-11-18T15:58:32.282Z,2.80
2017-11-18T16:01:06.668Z,2.30
2017-11-18T16:03:49.518Z,2.33
2017-11-18T16:06:19.229Z,2.42
2017-11-18T16:08:47.279Z,2.40
2017-11-18T16:11:15.305Z,1.90
2017-11-18T16:13:43.438Z,2.67
2017-11-18T16:16:14.998Z,4.90
2017-11-18T16:18:45.443Z,3.35
2017-11-18T16:21:19.940Z,2.17
2017-11-18T16:23:50.592Z,2.67
2017-11-18T16:26:19.642Z,2.53
2017-11-18T16:28:48.479Z,5.32
2017-11-18T16:31:16.904Z,3.10
2017-11-18T16:33:46.373Z,3.00
2017-11-18T16:36:14.794Z,2.67
2017-11-18T16:38:42.945Z,3.92
2017-11-18T16:41:11.184Z,2.72
2017-11-18T16:43:40.064Z,2.80
2017-11-18T16:46:08.785Z,3.08
2017-11-18T16:48:38.191Z,2.65
2017-11-18T16:51:07.409Z,3.15
2017-11-18T16:53:37.553Z,3.50
2017-11-18T16:56:06.088Z,2.78
2017-11-18T16:58:34.149Z,3.30
2017-11-18T17:01:04.384Z,3.72
2017-11-18T17:03:33.912Z,3.28
2017-11-18T17:06:04.467Z,2.97
2017-11-18T17:08:33.205Z,3.03
2017-11-18T17:11:01.765Z,2.72
2017-11-18T17:13:30.755Z,3.30
2017-11-18T17:15:59.387Z,3.92
2017-11-18T17:18:28.240Z,3.25
2017-11-18T17:20:56.832Z,3.85
2017-11-18T17:23:30.050Z,3.65
2017-11-18T17:25:58.964Z,4.00
2017-11-18T17:28:27.843Z,3.45
2017-11-18T17:30:56.452Z,3.50
2017-11-18T17:33:26.287Z,3.35
2017-11-18T17:35:55.929Z,4.00
2017-11-18T17:38:29.601Z,3.05
2017-11-18T17:40:57.668Z,3.67
2017-11-18T17:43:25.653Z,3.20
2017-11-18T17:45:53.594Z,3.83
2017-11-18T17:48:21.738Z,3.53
2017-11-18T17:50:49.675Z,4.10
2017-11-18T17:53:17.688Z,3.55
2017-11-18T17:55:47.865Z,3.12
2017-11-18T17:58:16.885Z,5.32
2017-11-18T18:00:44.893Z,4.70
2017-11-18T18:03:12.851Z,5.03
2017-11-18T18:05:40.880Z,4.10
2017-11-18T18:08:09.080Z,4.40
2017-11-18T18:10:37.864Z,4.12
2017-11-18T18:13:11.600Z,2.95
2017-11-18T18:15:44.868Z,5.10
2017-11-18T18:18:16.046Z,6.15
2017-11-18T18:20:48.096Z,8.00
2017-11-18T18:23:18.500Z,5.35
2017-11-18T18:25:46.919Z,6.80
2017-11-18T18:28:21.292Z,3.87
2017-11-18T18:30:51.104Z,3.47
2017-11-18T18:33:26.317Z,4.25
2017-11-18T18:35:55.021Z,4.03
2017-11-18T18:38:22.969Z,5.32
2017-11-18T18:40:50.946Z,3.65
2017-11-18T18:43:19.050Z,5.60
2017-11-18T18:45:47.018Z,4.45
2017-11-18T18:48:15.708Z,4.95
2017-11-18T18:50:44.422Z,5.70
2017-11-18T18:53:12.329Z,17.62
2017-11-18T18:55:40.297Z,7.50
2017-11-18T18:58:08.281Z,6.65
2017-11-18T19:00:36.305Z,5.55
2017-11-18T19:03:04.272Z,5.97
2017-11-18T19:05:32.216Z,6.47
2017-11-18T19:08:00.887Z,5.40
2017-11-18T19:10:28.837Z,5.20
2017-11-18T19:12:56.753Z,6.07
2017-11-18T19:15:24.710Z,5.68
2017-11-18T19:17:52.646Z,7.12
2017-11-18T19:20:20.683Z,5.22
2017-11-18T19:22:48.589Z,5.20
2017-11-18T19:25:16.595Z,5.55
2017-11-18T19:27:44.947Z,7.28
2017-11-18T19:30:12.942Z,7.40
2017-11-18T19:32:41.022Z,8.10
2017-11-18T19:35:09.729Z,11.30
2017-11-18T19:37:37.664Z,6.65
2017-11-18T19:40:05.569Z,7.00
2017-11-18T19:42:34.662Z,5.32
2017-11-18T19:45:02.599Z,5.68
2017-11-18T19:47:30.551Z,5.35
2017-11-18T19:49:58.437Z,6.00
2017-11-18T19:52:26.410Z,5.80
2017-11-18T19:54:54.310Z,5.20
2017-11-18T19:57:22.261Z,5.95
2017-11-18T19:59:50.165Z,6.28
2017-11-18T20:02:18.105Z,5.95
2017-11-18T20:04:46.880Z,6.00
2017-11-18T20:07:15.669Z,4.80
2017-11-18T20:09:43.584Z,5.68
2017-11-18T20:12:11.831Z,5.80
2017-11-18T20:14:39.801Z,4.90
2017-11-18T20:17:07.827Z,5.00
2017-11-18T20:19:35.776Z,6.32
2017-11-18T20:22:05.013Z,5.30
2017-11-18T20:24:33.945Z,6.10
2017-11-18T20:27:01.991Z,5.35
2017-11-18T20:29:30.659Z,5.18
2017-11-18T20:31:58.795Z,5.10
2017-11-18T20:34:26.758Z,5.53
2017-11-18T20:36:54.660Z,5.85
2017-11-18T20:39:22.623Z,5.68
2017-11-18T20:41:50.532Z,6.35
2017-11-18T20:44:19.241Z,5.40
2017-11-18T20:46:48.914Z,4.68
2017-11-18T20:49:16.847Z,6.07
2017-11-18T20:51:44.736Z,6.07
2017-11-18T20:54:12.660Z,5.43
2017-11-18T20:56:40.578Z,4.82
2017-11-18T20:59:08.537Z,5.15
2017-11-18T21:01:36.399Z,5.20
2017-11-18T21:04:04.882Z,4.40
2017-11-18T21:06:33.326Z,4.37
2017-11-18T21:09:01.284Z,5.20
2017-11-18T21:11:29.249Z,5.20
2017-11-18T21:13:58.268Z,5.22
2017-11-18T21:16:26.173Z,4.60
2017-11-18T21:18:54.114Z,4.55
2017-11-18T21:21:22.013Z,5.22
2017-11-18T21:23:51.083Z,4.18
2017-11-18T21:26:18.998Z,4.87
2017-11-18T21:28:46.929Z,5.05
2017-11-18T21:31:14.813Z,5.43
2017-11-18T21:33:42.738Z,4.60
2017-11-18T21:36:10.702Z,2.75
2017-11-18T21:38:38.686Z,3.47
2017-11-18T21:41:06.612Z,2.97
2017-11-18T21:43:34.576Z,3.50
2017-11-18T21:46:02.497Z,4.20
2017-11-18T21:48:30.502Z,4.50
2017-11-18T21:50:58.528Z,4.78
2017-11-18T21:53:26.667Z,5.05
2017-11-18T21:55:54.579Z,4.20
2017-11-18T21:58:22.484Z,4.60
2017-11-18T22:00:50.437Z,4.60
2017-11-18T22:03:18.392Z,5.25
2017-11-18T22:05:46.360Z,5.55
2017-11-18T22:08:14.236Z,4.87
2017-11-18T22:10:42.167Z,4.93
2017-11-18T22:13:10.044Z,3.90
2017-11-18T22:15:38.752Z,5.90
2017-11-18T22:18:06.636Z,4.87
2017-11-18T22:20:34.646Z,4.30
2017-11-18T22:23:02.638Z,5.68
2017-11-18T22:25:30.614Z,5.80
2017-11-18T22:27:58.589Z,5.68
2017-11-18T22:30:26.538Z,6.25
2017-11-18T22:32:55.208Z,5.35
2017-11-18T22:35:23.156Z,5.25
2017-11-18T22:37:51.040Z,5.40
2017-11-18T22:40:19.003Z,4.87
2017-11-18T22:42:46.900Z,4.50
2017-11-18T22:45:14.973Z,4.78
2017-11-18T22:47:42.874Z,5.53
2017-11-18T22:50:10.829Z,4.30
2017-11-18T22:52:39.496Z,4.45
2017-11-18T22:55:08.149Z,4.55
2017-11-18T22:57:36.165Z,4.45
2017-11-18T23:00:04.126Z,4.40
2017-11-18T23:02:32.827Z,5.12
2017-11-18T23:05:00.719Z,5.15
2017-11-18T23:07:29.418Z,3.90
2017-11-18T23:09:57.362Z,4.20
2017-11-18T23:12:25.442Z,4.00
2017-11-18T23:14:53.329Z,5.40
2017-11-18T23:17:21.309Z,4.65
2017-11-18T23:19:49.206Z,4.90
2017-11-18T23:22:17.311Z,4.65
2017-11-18T23:24:45.214Z,4.45
2017-11-18T23:27:13.154Z,4.70
2017-11-18T23:29:41.058Z,4.90
2017-11-18T23:32:09.061Z,5.07
2017-11-18T23:34:36.952Z,5.00
2017-11-18T23:37:04.934Z,5.47
2017-11-18T23:39:32.858Z,5.03
2017-11-18T23:42:00.801Z,4.85
2017-11-18T23:44:28.702Z,5.10
2017-11-18T23:46:56.684Z,4.82
2017-11-18T23:49:25.130Z,4.53
2017-11-18T23:51:53.279Z,5.55
2017-11-18T23:54:21.221Z,5.32
2017-11-18T23:56:49.165Z,4.95
2017-11-18T23:59:17.191Z,5.90
